createdAt,value
2019-05-17T00:00:17.937Z,96302.05
2019-05-17T00:02:46.563Z,96290.55
2019-05-17T00:05:12.950Z,96296.30
2019-05-17T00:07:40.402Z,96294.79
2019-05-17T00:10:08.022Z,96291.55
2019-05-17T00:12:36.769Z,96287.31
2019-05-17T00:15:03.229Z,96282.06
2019-05-17T00:17:30.684Z,96284.05
2019-05-17T00:19:58.186Z,96275.95
2019-05-17T00:22:26.999Z,96279.45
2019-05-17T00:24:53.114Z,96278.09
2019-05-17T00:27:20.562Z,96270.03
2019-05-17T00:29:48.063Z,96263.66
2019-05-17T00:32:17.079Z,96251.34
2019-05-17T00:34:42.998Z,96247.55
2019-05-17T00:37:10.459Z,96244.44
2019-05-17T00:39:37.919Z,96240.58
2019-05-17T00:42:07.017Z,96240.05
2019-05-17T00:44:32.908Z,96243.08
2019-05-17T00:47:00.458Z,96234.57
2019-05-17T00:49:27.919Z,96234.49
2019-05-17T00:51:56.749Z,96226.88
2019-05-17T00:54:23.197Z,96224.45
2019-05-17T00:56:50.706Z,96228.44
2019-05-17T00:59:18.217Z,96224.35
2019-05-17T01:01:46.862Z,96230.16
2019-05-17T01:04:13.231Z,96226.64
2019-05-17T01:06:40.688Z,96220.30
2019-05-17T01:09:08.219Z,96218.79
2019-05-17T01:11:36.607Z,96221.08
2019-05-17T01:14:03.222Z,96215.45
2019-05-17T01:16:30.669Z,96215.45
2019-05-17T01:18:58.118Z,96214.22
2019-05-17T01:21:26.284Z,96207.46
2019-05-17T01:23:53.047Z,96201.50
2019-05-17T01:26:20.487Z,96198.50
2019-05-17T01:28:47.937Z,96200.80
2019-05-17T01:31:17.288Z,96196.76
2019-05-17T01:33:42.923Z,96198.05
2019-05-17T01:36:10.461Z,96198.20
2019-05-17T01:38:37.960Z,96190.59
2019-05-17T01:41:06.972Z,96181.77
2019-05-17T01:43:32.866Z,96182.04
2019-05-17T01:46:00.332Z,96176.72
2019-05-17T01:48:27.786Z,96171.28
2019-05-17T01:50:56.814Z,96172.03
2019-05-17T01:53:22.746Z,96178.06
2019-05-17T01:55:50.205Z,96169.37
2019-05-17T01:58:17.657Z,96168.95
2019-05-17T02:00:46.551Z,96171.28
2019-05-17T02:03:12.625Z,96171.28
2019-05-17T02:05:40.078Z,96174.09
2019-05-17T02:08:07.597Z,96171.06
2019-05-17T02:10:37.286Z,96169.45
2019-05-17T02:13:02.531Z,96172.82
2019-05-17T02:15:29.975Z,96174.09
2019-05-17T02:17:57.493Z,96169.19
2019-05-17T02:20:27.382Z,96167.58
2019-05-17T02:22:52.402Z,96164.98
2019-05-17T02:25:19.876Z,96167.83
2019-05-17T02:27:47.335Z,96165.36
2019-05-17T02:30:14.979Z,96169.00
2019-05-17T02:32:43.057Z,96172.30
2019-05-17T02:35:09.854Z,96166.86
2019-05-17T02:37:37.344Z,96167.61
2019-05-17T02:40:08.263Z,96168.40
2019-05-17T02:42:33.264Z,96169.53
2019-05-17T02:45:02.880Z,96173.12
2019-05-17T02:47:27.417Z,96173.72
2019-05-17T02:49:54.860Z,96166.64
2019-05-17T02:52:23.001Z,96172.48
2019-05-17T02:54:52.697Z,96165.85
2019-05-17T02:57:17.492Z,96161.98
2019-05-17T02:59:45.488Z,96158.13
2019-05-17T03:02:12.965Z,96153.89
2019-05-17T03:04:43.280Z,96150.75
2019-05-17T03:07:07.959Z,96153.56
2019-05-17T03:09:35.406Z,96150.89
2019-05-17T03:12:03.514Z,96146.30
2019-05-17T03:14:32.755Z,96148.36
2019-05-17T03:16:57.956Z,96142.66
2019-05-17T03:19:25.409Z,96144.23
2019-05-17T03:21:53.519Z,96147.30
2019-05-17T03:24:22.601Z,96150.24
2019-05-17T03:26:47.968Z,96149.83
2019-05-17T03:29:15.423Z,96148.94
2019-05-17T03:31:51.098Z,96148.67
2019-05-17T03:34:15.925Z,96146.72
2019-05-17T03:36:37.956Z,96145.55
2019-05-17T03:39:05.428Z,96139.11
2019-05-17T03:41:34.046Z,96131.96
2019-05-17T03:44:03.289Z,96136.30
2019-05-17T03:46:27.929Z,96122.64
2019-05-17T03:48:55.393Z,96118.25
2019-05-17T03:51:23.437Z,96129.34
2019-05-17T03:53:53.091Z,96126.23
2019-05-17T03:56:17.908Z,96128.59
2019-05-17T03:58:45.374Z,96127.24
2019-05-17T04:01:14.012Z,96124.29
2019-05-17T04:03:43.511Z,96124.25
2019-05-17T04:06:07.851Z,96125.75
2019-05-17T04:08:35.319Z,96120.50
2019-05-17T04:11:17.607Z,96121.74
2019-05-17T04:13:33.564Z,96120.70
2019-05-17T04:15:57.808Z,96127.11
2019-05-17T04:18:25.269Z,96128.60
2019-05-17T04:20:52.991Z,96124.70
2019-05-17T04:23:22.997Z,96122.42
2019-05-17T04:25:47.808Z,96124.81
2019-05-17T04:28:15.277Z,96121.52
2019-05-17T04:30:43.389Z,96127.59
2019-05-17T04:33:12.853Z,96121.48
2019-05-17T04:35:37.847Z,96122.31
2019-05-17T04:38:05.323Z,96124.00
2019-05-17T04:40:34.041Z,96116.42
2019-05-17T04:43:02.974Z,96116.77
2019-05-17T04:45:27.928Z,96119.64
2019-05-17T04:47:56.006Z,96118.30
2019-05-17T04:50:23.492Z,96112.55
2019-05-17T04:52:53.693Z,96115.43
2019-05-17T04:55:18.461Z,96122.09
2019-05-17T04:57:45.930Z,96120.29
2019-05-17T05:00:13.514Z,96121.11
2019-05-17T05:02:43.579Z,96114.14
2019-05-17T05:05:08.403Z,96119.31
2019-05-17T05:07:35.978Z,96113.87
2019-05-17T05:10:03.541Z,96110.70
2019-05-17T05:12:33.851Z,96104.12
2019-05-17T05:15:03.522Z,96105.73
2019-05-17T05:17:28.842Z,96099.27
2019-05-17T05:19:57.110Z,96106.77
2019-05-17T05:22:24.556Z,96106.16
2019-05-17T05:24:52.480Z,96109.49
2019-05-17T05:27:22.159Z,96109.66
2019-05-17T05:29:47.541Z,96113.36
2019-05-17T05:32:15.027Z,96111.77
2019-05-17T05:34:42.953Z,96110.12
2019-05-17T05:37:12.418Z,96110.45
2019-05-17T05:39:38.424Z,96112.80
2019-05-17T05:42:10.285Z,96113.75
2019-05-17T05:44:33.372Z,96109.61
2019-05-17T05:47:02.159Z,96109.50
2019-05-17T05:49:28.406Z,96106.82
2019-05-17T05:51:56.013Z,96109.41
2019-05-17T05:54:23.488Z,96112.69
2019-05-17T05:56:52.495Z,96119.20
2019-05-17T05:59:18.432Z,96124.55
2019-05-17T06:01:45.912Z,96126.84
2019-05-17T06:04:13.378Z,96132.46
2019-05-17T06:06:41.647Z,96121.94
2019-05-17T06:09:07.430Z,96123.72
2019-05-17T06:11:34.430Z,96121.57
2019-05-17T06:14:01.733Z,96122.25
2019-05-17T06:16:28.470Z,96119.61
2019-05-17T06:18:55.463Z,96120.45
2019-05-17T06:21:22.757Z,96122.52
2019-05-17T06:23:51.661Z,96119.58
2019-05-17T06:26:18.200Z,96115.70
2019-05-17T06:28:44.087Z,96117.78
2019-05-17T06:31:11.070Z,96112.38
2019-05-17T06:33:38.083Z,96110.68
2019-05-17T06:36:05.105Z,96103.77
2019-05-17T06:38:32.931Z,96100.75
2019-05-17T06:41:01.456Z,96102.05
2019-05-17T06:43:26.455Z,96092.17
2019-05-17T06:45:53.535Z,96088.17
2019-05-17T06:48:22.542Z,96087.45
2019-05-17T06:50:47.589Z,96085.95
2019-05-17T06:53:14.593Z,96088.52
2019-05-17T06:55:42.365Z,96088.19
2019-05-17T06:58:08.694Z,96096.09
2019-05-17T07:00:35.694Z,96097.63
2019-05-17T07:03:02.739Z,96092.27
2019-05-17T07:05:29.975Z,96098.08
2019-05-17T07:07:57.361Z,96101.98
2019-05-17T07:10:24.460Z,96091.81
2019-05-17T07:12:58.608Z,96095.43
2019-05-17T07:15:19.855Z,96094.03
2019-05-17T07:17:45.561Z,96094.47
2019-05-17T07:20:12.675Z,96094.71
2019-05-17T07:22:40.930Z,96096.88
2019-05-17T07:25:06.884Z,96097.44
2019-05-17T07:27:41.584Z,96098.14
2019-05-17T07:30:01.262Z,96090.84
2019-05-17T07:32:29.732Z,96094.71
2019-05-17T07:34:55.307Z,96095.36
2019-05-17T07:37:23.569Z,96091.34
2019-05-17T07:39:58.592Z,96081.94
2019-05-17T07:42:19.564Z,96081.13
2019-05-17T07:44:45.009Z,96079.28
2019-05-17T07:47:12.005Z,96077.56
2019-05-17T07:49:40.489Z,96071.41
2019-05-17T07:52:06.243Z,96068.45
2019-05-17T07:54:33.492Z,96065.89
2019-05-17T07:57:00.505Z,96070.20
2019-05-17T07:59:29.443Z,96060.83
2019-05-17T08:01:54.796Z,96059.02
2019-05-17T08:04:21.790Z,96060.31
2019-05-17T08:06:50.503Z,96057.73
2019-05-17T08:09:15.838Z,96060.27
2019-05-17T08:11:42.879Z,96048.99
2019-05-17T08:14:10.551Z,96038.50
2019-05-17T08:16:39.373Z,96034.50
2019-05-17T08:19:04.012Z,96033.62
2019-05-17T08:21:31.008Z,96038.13
2019-05-17T08:24:00.112Z,96035.88
2019-05-17T08:26:25.354Z,96036.75
2019-05-17T08:28:52.332Z,96048.17
2019-05-17T08:31:20.218Z,96039.23
2019-05-17T08:33:46.431Z,96037.10
2019-05-17T08:36:13.418Z,96042.30
2019-05-17T08:38:40.443Z,96045.19
2019-05-17T08:41:10.331Z,96040.70
2019-05-17T08:43:43.188Z,96047.70
2019-05-17T08:46:02.637Z,96043.36
2019-05-17T08:48:29.471Z,96038.77
2019-05-17T08:50:55.733Z,96033.31
2019-05-17T08:53:22.730Z,96036.50
2019-05-17T08:55:50.350Z,96032.38
2019-05-17T08:58:17.415Z,96039.17
2019-05-17T09:00:44.515Z,96036.12
2019-05-17T09:03:11.502Z,96041.79
2019-05-17T09:05:41.392Z,96042.44
2019-05-17T09:08:05.588Z,96047.05
2019-05-17T09:10:32.576Z,96049.62
2019-05-17T09:12:59.826Z,96051.06
2019-05-17T09:15:26.687Z,96053.16
2019-05-17T09:17:53.757Z,96053.55
2019-05-17T09:20:20.752Z,96055.25
2019-05-17T09:22:50.845Z,96045.97
2019-05-17T09:25:18.990Z,96052.46
2019-05-17T09:27:42.493Z,96049.16
2019-05-17T09:30:09.601Z,96042.45
2019-05-17T09:32:40.134Z,96045.38
2019-05-17T09:35:04.488Z,96042.80
2019-05-17T09:37:31.501Z,96046.34
2019-05-17T09:39:59.842Z,96044.40
2019-05-17T09:42:25.659Z,96046.44
2019-05-17T09:44:52.722Z,96040.77
2019-05-17T09:47:20.632Z,96048.97
2019-05-17T09:49:46.741Z,96041.62
2019-05-17T09:52:13.759Z,96033.97
2019-05-17T09:54:45.058Z,96042.03
2019-05-17T09:57:09.896Z,96052.85
2019-05-17T09:59:35.123Z,96046.94
2019-05-17T10:02:02.107Z,96052.48
2019-05-17T10:04:30.454Z,96050.02
2019-05-17T10:06:56.254Z,96051.73
2019-05-17T10:09:23.252Z,96051.52
2019-05-17T10:11:50.340Z,96054.28
2019-05-17T10:14:25.759Z,96062.73
2019-05-17T10:16:44.370Z,96060.04
2019-05-17T10:19:11.522Z,96066.31
2019-05-17T10:21:39.925Z,96071.39
2019-05-17T10:24:05.554Z,96064.42
2019-05-17T10:26:32.684Z,96062.46
2019-05-17T10:28:59.699Z,96066.37
2019-05-17T10:31:26.711Z,96066.78
2019-05-17T10:33:53.722Z,96072.25
2019-05-17T10:36:20.722Z,96078.94
2019-05-17T10:38:50.021Z,96071.52
2019-05-17T10:41:14.878Z,96070.44
2019-05-17T10:43:41.887Z,96062.08
2019-05-17T10:46:10.554Z,96069.34
2019-05-17T10:48:35.892Z,96061.47
2019-05-17T10:51:02.875Z,96066.17
2019-05-17T10:53:29.995Z,96076.17
2019-05-17T10:55:57.025Z,96081.98
2019-05-17T10:58:24.036Z,96077.78
2019-05-17T11:03:23.485Z,96079.02
2019-05-17T11:05:50.926Z,96073.73
2019-05-17T11:08:19.767Z,96079.23
2019-05-17T11:10:45.010Z,96074.89
2019-05-17T11:13:12.005Z,96071.02
2019-05-17T11:15:39.018Z,96065.41
2019-05-17T11:18:06.062Z,96062.28
2019-05-17T11:20:33.304Z,96059.27
2019-05-17T11:23:00.325Z,96053.02
2019-05-17T11:25:27.356Z,96049.80
2019-05-17T11:27:54.403Z,96046.51
2019-05-17T11:30:22.286Z,96052.70
2019-05-17T11:32:49.351Z,96046.80
2019-05-17T11:35:16.339Z,96056.53
2019-05-17T11:37:43.345Z,96063.91
2019-05-17T11:40:10.325Z,96057.41
2019-05-17T11:42:37.462Z,96060.37
2019-05-17T11:45:04.460Z,96065.03
2019-05-17T11:47:31.459Z,96064.31
2019-05-17T11:49:58.465Z,96060.23
2019-05-17T11:52:25.473Z,96061.40
2019-05-17T11:54:52.487Z,96062.09
2019-05-17T11:57:19.469Z,96069.20
2019-05-17T11:59:46.528Z,96067.50
2019-05-17T12:02:13.526Z,96071.66
2019-05-17T12:04:40.504Z,96065.53
2019-05-17T12:07:07.983Z,96068.13
2019-05-17T12:09:37.715Z,96067.78
2019-05-17T12:12:03.004Z,96064.70
2019-05-17T12:14:30.460Z,96049.05
2019-05-17T12:16:58.641Z,96062.06
2019-05-17T12:19:26.119Z,96064.06
2019-05-17T12:21:53.563Z,96064.39
2019-05-17T12:24:21.201Z,96063.13
2019-05-17T12:26:49.360Z,96058.97
2019-05-17T12:29:16.816Z,96064.88
2019-05-17T12:31:44.601Z,96059.95
2019-05-17T12:34:12.101Z,96058.50
2019-05-17T12:36:39.654Z,96069.11
2019-05-17T12:39:07.116Z,96065.88
2019-05-17T12:41:34.728Z,96062.00
2019-05-17T12:44:02.407Z,96076.89
2019-05-17T12:46:29.885Z,96074.63
2019-05-17T12:48:57.348Z,96077.05
2019-05-17T12:51:24.821Z,96077.41
2019-05-17T12:53:52.393Z,96085.58
2019-05-17T12:56:19.851Z,96081.13
2019-05-17T12:58:47.316Z,96080.88
2019-05-17T13:01:14.799Z,96082.50
2019-05-17T13:03:43.560Z,96085.19
2019-05-17T13:06:11.062Z,96082.58
2019-05-17T13:08:39.198Z,96073.05
2019-05-17T13:11:06.668Z,96085.06
2019-05-17T13:13:34.252Z,96091.94
2019-05-17T13:16:16.729Z,96086.06
2019-05-17T13:18:29.291Z,96098.09
2019-05-17T13:20:56.772Z,96096.89
2019-05-17T13:23:24.349Z,96100.22
2019-05-17T13:25:51.834Z,96102.00
2019-05-17T13:28:19.375Z,96099.86
2019-05-17T13:30:47.079Z,96105.02
2019-05-17T13:33:14.533Z,96098.75
2019-05-17T13:35:42.034Z,96100.35
2019-05-17T13:38:09.667Z,96102.64
2019-05-17T13:40:39.911Z,96105.52
2019-05-17T13:43:04.611Z,96100.91
2019-05-17T13:45:32.100Z,96101.50
2019-05-17T13:47:59.567Z,96096.95
2019-05-17T13:50:27.263Z,96096.26
2019-05-17T13:52:54.781Z,96108.85
2019-05-17T13:55:22.264Z,96100.80
2019-05-17T13:57:49.918Z,96107.59
2019-05-17T14:00:17.410Z,96110.56
2019-05-17T14:02:44.899Z,96116.62
2019-05-17T14:05:12.375Z,96115.66
2019-05-17T14:07:39.859Z,96117.66
2019-05-17T14:10:07.328Z,96120.73
2019-05-17T14:12:34.825Z,96115.28
2019-05-17T14:15:02.291Z,96122.84
2019-05-17T14:17:29.788Z,96119.52
2019-05-17T14:19:57.294Z,96122.00
2019-05-17T14:22:24.816Z,96118.55
2019-05-17T14:24:52.259Z,96117.69
2019-05-17T14:27:19.701Z,96118.01
2019-05-17T14:29:47.394Z,96115.66
2019-05-17T14:32:14.991Z,96121.70
2019-05-17T14:34:42.407Z,96126.59
2019-05-17T14:37:09.964Z,96116.87
2019-05-17T14:39:37.444Z,96117.00
2019-05-17T14:42:04.935Z,96124.80
2019-05-17T14:44:32.432Z,96128.72
2019-05-17T14:46:59.885Z,96125.97
2019-05-17T14:49:27.363Z,96115.14
2019-05-17T14:51:54.850Z,96119.66
2019-05-17T14:54:22.890Z,96116.73
2019-05-17T14:56:50.425Z,96119.65
2019-05-17T14:59:17.905Z,96127.61
2019-05-17T15:01:45.358Z,96121.85
2019-05-17T15:04:12.803Z,96126.91
2019-05-17T15:06:40.383Z,96118.44
2019-05-17T15:09:11.333Z,96122.42
2019-05-17T15:11:35.413Z,96117.80
2019-05-17T15:14:02.966Z,96118.73
2019-05-17T15:16:30.419Z,96112.55
2019-05-17T15:18:57.943Z,96122.41
2019-05-17T15:21:25.420Z,96119.21
2019-05-17T15:23:52.875Z,96122.19
2019-05-17T15:26:20.541Z,96117.92
2019-05-17T15:28:48.048Z,96123.09
2019-05-17T15:31:15.539Z,96120.20
2019-05-17T15:33:43.154Z,96122.47
2019-05-17T15:36:10.609Z,96125.22
2019-05-17T15:38:38.197Z,96126.05
2019-05-17T15:41:05.671Z,96118.98
2019-05-17T15:43:33.155Z,96126.41
2019-05-17T15:46:00.777Z,96117.74
2019-05-17T15:48:28.250Z,96122.33
2019-05-17T15:50:55.845Z,96120.02
2019-05-17T15:53:23.369Z,96119.89
2019-05-17T15:55:51.041Z,96122.60
2019-05-17T15:58:18.522Z,96120.22
2019-05-17T16:00:46.053Z,96119.05
2019-05-17T16:03:13.576Z,96117.28
2019-05-17T16:05:41.212Z,96114.45
2019-05-17T16:08:08.805Z,96114.58
2019-05-17T16:10:36.295Z,96110.46
2019-05-17T16:13:03.866Z,96111.41
2019-05-17T16:15:31.419Z,96110.38
2019-05-17T16:17:59.818Z,96109.42
2019-05-17T16:20:27.529Z,96112.45
2019-05-17T16:22:56.264Z,96111.63
2019-05-17T16:25:23.780Z,96114.08
2019-05-17T16:27:51.611Z,96116.34
2019-05-17T16:30:19.121Z,96123.88
2019-05-17T16:32:46.644Z,96119.30
2019-05-17T16:35:14.671Z,96114.80
2019-05-17T16:37:42.168Z,96117.44
2019-05-17T16:40:09.645Z,96110.19
2019-05-17T16:42:37.153Z,96120.89
2019-05-17T16:45:05.460Z,96121.38
2019-05-17T16:47:33.784Z,96116.82
2019-05-17T16:50:01.328Z,96121.94
2019-05-17T16:52:28.790Z,96114.68
2019-05-17T16:54:56.238Z,96114.85
2019-05-17T16:57:23.711Z,96113.89
2019-05-17T16:59:51.317Z,96112.47
2019-05-17T17:02:19.607Z,96111.13
2019-05-17T17:04:47.102Z,96110.80
2019-05-17T17:07:14.697Z,96109.23
2019-05-17T17:09:42.152Z,96113.77
2019-05-17T17:12:09.626Z,96116.00
2019-05-17T17:14:37.131Z,96117.70
2019-05-17T17:17:10.922Z,96112.16
2019-05-17T17:19:32.229Z,96115.72
2019-05-17T17:22:00.705Z,96118.16
2019-05-17T17:24:28.317Z,96122.53
2019-05-17T17:26:55.906Z,96119.87
2019-05-17T17:29:23.933Z,96119.67
2019-05-17T17:31:51.859Z,96119.05
2019-05-17T17:34:19.470Z,96123.23
2019-05-17T17:36:46.919Z,96124.68
2019-05-17T17:39:14.372Z,96122.22
2019-05-17T17:41:42.046Z,96117.36
2019-05-17T17:44:09.511Z,96119.47
2019-05-17T17:46:37.346Z,96115.69
2019-05-17T17:49:04.904Z,96118.81
2019-05-17T17:51:32.607Z,96124.68
2019-05-17T17:54:00.103Z,96126.34
2019-05-17T17:56:27.551Z,96130.70
2019-05-17T17:58:55.055Z,96120.45
2019-05-17T18:01:22.514Z,96124.09
2019-05-17T18:03:50.228Z,96126.38
2019-05-17T18:06:17.813Z,96134.16
2019-05-17T18:08:46.269Z,96130.58
2019-05-17T18:11:14.713Z,96135.03
2019-05-17T18:13:43.443Z,96135.44
2019-05-17T18:16:10.909Z,96137.79
2019-05-17T18:18:38.394Z,96134.74
2019-05-17T18:21:05.870Z,96144.98
2019-05-17T18:23:33.327Z,96142.63
2019-05-17T18:26:00.826Z,96140.70
2019-05-17T18:31:02.290Z,96140.41
2019-05-17T18:33:29.833Z,96140.28
2019-05-17T18:35:57.428Z,96143.41
2019-05-17T18:38:25.029Z,96147.69
2019-05-17T18:40:52.593Z,96143.62
2019-05-17T18:43:20.059Z,96151.23
2019-05-17T18:45:47.654Z,96150.66
2019-05-17T18:48:15.115Z,96154.89
2019-05-17T18:50:42.746Z,96157.56
2019-05-17T18:53:16.471Z,96152.38
2019-05-17T18:55:37.946Z,96151.02
2019-05-17T18:58:05.512Z,96149.55
2019-05-17T19:00:33.132Z,96150.33
2019-05-17T19:03:00.616Z,96155.17
2019-05-17T19:05:28.089Z,96154.52
2019-05-17T19:07:55.603Z,96158.87
2019-05-17T19:10:23.066Z,96155.73
2019-05-17T19:12:50.596Z,96160.25
2019-05-17T19:15:18.060Z,96167.86
2019-05-17T19:17:45.619Z,96167.04
2019-05-17T19:20:13.138Z,96171.94
2019-05-17T19:22:41.290Z,96168.69
2019-05-17T19:25:08.187Z,96168.85
2019-05-17T19:27:35.661Z,96172.02
2019-05-17T19:30:03.151Z,96175.13
2019-05-17T19:32:30.670Z,96178.59
2019-05-17T19:34:58.153Z,96178.79
2019-05-17T19:37:25.764Z,96182.73
2019-05-17T19:39:53.215Z,96185.22
2019-05-17T19:42:23.170Z,96181.67
2019-05-17T19:44:58.538Z,96184.11
2019-05-17T19:47:15.940Z,96181.66
2019-05-17T19:49:43.413Z,96179.78
2019-05-17T19:52:11.703Z,96183.20
2019-05-17T19:54:39.280Z,96184.59
2019-05-17T19:57:06.817Z,96188.57
2019-05-17T19:59:34.360Z,96188.36
2019-05-17T20:02:01.930Z,96187.27
2019-05-17T20:04:29.437Z,96183.73
2019-05-17T20:06:56.902Z,96188.23
2019-05-17T20:09:24.353Z,96186.05
2019-05-17T20:11:51.806Z,96185.59
2019-05-17T20:14:19.302Z,96183.44
2019-05-17T20:16:46.947Z,96180.23
2019-05-17T20:19:14.444Z,96181.62
2019-05-17T20:21:42.113Z,96188.55
2019-05-17T20:24:09.897Z,96190.90
2019-05-17T20:26:37.511Z,96186.63
2019-05-17T20:29:05.137Z,96181.87
2019-05-17T20:31:32.615Z,96181.72
2019-05-17T20:34:00.095Z,96184.23
2019-05-17T20:36:27.716Z,96182.52
2019-05-17T20:38:56.091Z,96182.02
2019-05-17T20:41:24.203Z,96177.53
2019-05-17T20:43:51.810Z,96180.56
2019-05-17T20:46:19.320Z,96181.86
2019-05-17T20:48:46.815Z,96167.60
2019-05-17T20:51:14.347Z,96172.52
2019-05-17T20:53:41.834Z,96175.14
2019-05-17T20:56:09.336Z,96170.67
2019-05-17T20:58:37.733Z,96177.01
2019-05-17T21:01:05.254Z,96176.11
2019-05-17T21:03:32.764Z,96175.72
2019-05-17T21:06:00.284Z,96167.06
2019-05-17T21:08:27.950Z,96172.81
2019-05-17T21:10:55.435Z,96169.13
2019-05-17T21:13:22.911Z,96160.28
2019-05-17T21:15:50.383Z,96161.19
2019-05-17T21:18:17.859Z,96162.17
2019-05-17T21:20:45.356Z,96159.85
2019-05-17T21:23:13.564Z,96152.37
2019-05-17T21:25:41.211Z,96155.91
2019-05-17T21:28:08.807Z,96153.14
2019-05-17T21:30:36.320Z,96159.92
2019-05-17T21:33:03.863Z,96151.46
2019-05-17T21:35:31.493Z,96150.05
2019-05-17T21:37:58.967Z,96150.38
2019-05-17T21:40:26.492Z,96149.17
2019-05-17T21:42:54.064Z,96147.76
2019-05-17T21:45:21.634Z,96148.14
2019-05-17T21:47:49.090Z,96144.73
2019-05-17T21:50:16.662Z,96137.45
2019-05-17T21:52:44.249Z,96143.05
2019-05-17T21:55:11.756Z,96137.28
2019-05-17T21:57:39.280Z,96142.02
2019-05-17T22:00:06.805Z,96135.23
2019-05-17T22:02:34.837Z,96131.32
2019-05-17T22:05:06.515Z,96132.97
2019-05-17T22:07:34.080Z,96137.16
2019-05-17T22:10:02.675Z,96141.09
2019-05-17T22:12:30.300Z,96135.48
2019-05-17T22:14:57.894Z,96141.41
2019-05-17T22:17:25.349Z,96139.08
2019-05-17T22:19:52.823Z,96139.69
2019-05-17T22:22:20.315Z,96145.94
2019-05-17T22:24:47.825Z,96140.64
2019-05-17T22:27:17.229Z,96139.42
2019-05-17T22:29:44.777Z,96140.59
2019-05-17T22:32:12.294Z,96137.55
2019-05-17T22:34:39.828Z,96142.44
2019-05-17T22:37:08.436Z,96149.07
2019-05-17T22:39:36.620Z,96145.62
2019-05-17T22:42:04.125Z,96135.60
2019-05-17T22:44:31.646Z,96143.98
2019-05-17T22:46:59.136Z,96141.67
2019-05-17T22:49:26.918Z,96145.43
2019-05-17T22:51:54.374Z,96144.98
2019-05-17T22:54:21.919Z,96139.23
2019-05-17T22:56:49.453Z,96144.44
2019-05-17T22:59:17.127Z,96146.63
2019-05-17T23:01:44.606Z,96140.16
2019-05-17T23:04:12.959Z,96148.39
2019-05-17T23:06:40.489Z,96140.06
2019-05-17T23:09:08.046Z,96144.34
2019-05-17T23:11:35.598Z,96146.74
2019-05-17T23:14:03.090Z,96145.92
2019-05-17T23:16:30.611Z,96138.90
2019-05-17T23:19:03.598Z,96144.95
2019-05-17T23:21:31.085Z,96143.86
2019-05-17T23:23:58.599Z,96135.67
2019-05-17T23:26:26.075Z,96135.23
2019-05-17T23:28:53.676Z,96126.30
2019-05-17T23:31:21.194Z,96135.60
2019-05-17T23:33:49.267Z,96126.53
2019-05-17T23:36:16.747Z,96129.45
2019-05-17T23:38:44.277Z,96130.56
2019-05-17T23:41:11.750Z,96129.03
2019-05-17T23:43:39.335Z,96128.23
2019-05-17T23:46:06.796Z,96133.41
2019-05-17T23:48:34.286Z,96138.33
2019-05-17T23:51:01.730Z,96127.75
2019-05-17T23:53:29.219Z,96132.91
2019-05-17T23:55:56.683Z,96130.98
2019-05-17T23:58:24.228Z,96129.52
